Kezdőlap
METAR-TAF:

METAR-TAF

Repülőterek :

Buffalo Municipal Airport

Buffalo, Minnesota, Amerikai Egyesült Államok

földrajzi szélesség: 45-09-32N, földrajzi hosszúság: 093-50-35W, magasság: 295 m

Jelenlegi meteorológiai megfigyelések

A jelentés 25 perccel ezelõtt készült, 07:35 UTC
Észak-északkeleti szél 8 kt
Hőmérséklet 17°C
Páratartalom 100%
Légköri nyomás 1008 hPa
Látótávolság: 6.4 km
Kevés felhő 500 lábon
Kevés felhő 1400 lábon
Borult 3400 lábon
zivatar a közelben, esõ, Párásság

METAR: KCFE 210735Z AUTO 03008KT 4SM VCTS RA BR FEW005 FEW014 OVC034 17/17 A2977 RMK AO2 LTG DSNT ALQDS

Idő: 03:00 (08:00 UTC)


TAF: hiányzik

Meteorológiai megfigyelések és előrejelzések több, mint 4000 repülőtéren (METAR és TAF jelentéseket).

A térképen piros és sárga pontok jelzik az elérhető meteorológiai állomásokat.

Mozgassa az egeret a pont fölött, hogy megjelenjen az állomás neve.

Azután kattintson az időjárási megfigyelések és előrejelzések megtekintéséhez.

A térkép megváltoztatása: kattintson a fekete keresztel jelölt zöld gombra ráközelítéshez, a vonallal jelölt zöld gombra távolításhoz, vagy a zöld nyilakra a szomszédos térképek eléréséhez.


METAR-TAF: